sensor_id;sensor_type;location;lat;lon;timestamp;P1;durP1;ratioP1;P2;durP2;ratioP2
76176;SDS011;64938;47.696;8.066;2023-02-24T00:01:41;14.20;;;8.50;;
76176;SDS011;64938;47.696;8.066;2023-02-24T00:04:08;15.10;;;7.53;;
76176;SDS011;64938;47.696;8.066;2023-02-24T00:06:37;18.80;;;7.70;;
76176;SDS011;64938;47.696;8.066;2023-02-24T00:11:51;12.93;;;7.80;;
76176;SDS011;64938;47.696;8.066;2023-02-24T00:14:19;16.57;;;8.13;;
76176;SDS011;64938;47.696;8.066;2023-02-24T00:16:45;16.50;;;8.23;;
76176;SDS011;64938;47.696;8.066;2023-02-24T00:19:12;20.03;;;10.17;;
76176;SDS011;64938;47.696;8.066;2023-02-24T00:21:40;28.70;;;11.40;;
76176;SDS011;64938;47.696;8.066;2023-02-24T00:24:06;22.93;;;10.33;;
76176;SDS011;64938;47.696;8.066;2023-02-24T00:26:32;22.23;;;11.80;;
76176;SDS011;64938;47.696;8.066;2023-02-24T00:28:57;17.37;;;10.73;;
76176;SDS011;64938;47.696;8.066;2023-02-24T00:31:24;19.60;;;10.50;;
76176;SDS011;64938;47.696;8.066;2023-02-24T00:33:55;16.00;;;9.10;;
76176;SDS011;64938;47.696;8.066;2023-02-24T00:36:22;19.33;;;10.43;;
76176;SDS011;64938;47.696;8.066;2023-02-24T00:38:49;16.60;;;9.27;;
76176;SDS011;64938;47.696;8.066;2023-02-24T00:41:22;21.10;;;9.50;;
76176;SDS011;64938;47.696;8.066;2023-02-24T00:43:53;21.13;;;10.70;;
76176;SDS011;64938;47.696;8.066;2023-02-24T00:46:21;19.97;;;12.23;;
76176;SDS011;64938;47.696;8.066;2023-02-24T00:48:52;21.67;;;11.53;;
76176;SDS011;64938;47.696;8.066;2023-02-24T00:51:20;24.77;;;11.80;;
76176;SDS011;64938;47.696;8.066;2023-02-24T00:53:54;23.17;;;13.07;;
76176;SDS011;64938;47.696;8.066;2023-02-24T00:56:24;20.00;;;11.10;;
76176;SDS011;64938;47.696;8.066;2023-02-24T00:58:52;24.13;;;11.13;;
76176;SDS011;64938;47.696;8.066;2023-02-24T01:01:19;22.47;;;11.70;;
76176;SDS011;64938;47.696;8.066;2023-02-24T01:03:47;22.90;;;11.50;;
76176;SDS011;64938;47.696;8.066;2023-02-24T01:06:15;22.80;;;12.40;;
76176;SDS011;64938;47.696;8.066;2023-02-24T01:08:44;21.00;;;11.60;;
76176;SDS011;64938;47.696;8.066;2023-02-24T01:11:17;26.73;;;12.97;;
76176;SDS011;64938;47.696;8.066;2023-02-24T01:14:10;18.80;;;10.20;;
76176;SDS011;64938;47.696;8.066;2023-02-24T01:16:42;16.60;;;10.23;;
76176;SDS011;64938;47.696;8.066;2023-02-24T01:19:18;22.20;;;10.30;;
76176;SDS011;64938;47.696;8.066;2023-02-24T01:21:45;17.53;;;9.80;;
76176;SDS011;64938;47.696;8.066;2023-02-24T01:24:12;19.93;;;10.17;;
76176;SDS011;64938;47.696;8.066;2023-02-24T01:26:40;16.70;;;9.80;;
76176;SDS011;64938;47.696;8.066;2023-02-24T01:29:06;14.40;;;9.07;;
76176;SDS011;64938;47.696;8.066;2023-02-24T01:31:37;15.33;;;8.53;;
76176;SDS011;64938;47.696;8.066;2023-02-24T01:34:07;27.70;;;11.30;;
76176;SDS011;64938;47.696;8.066;2023-02-24T01:36:35;21.77;;;11.50;;
76176;SDS011;64938;47.696;8.066;2023-02-24T01:39:02;26.90;;;11.90;;
76176;SDS011;64938;47.696;8.066;2023-02-24T01:41:30;27.13;;;12.10;;
76176;SDS011;64938;47.696;8.066;2023-02-24T01:44:03;25.00;;;12.23;;
76176;SDS011;64938;47.696;8.066;2023-02-24T01:46:53;37.07;;;14.17;;
76176;SDS011;64938;47.696;8.066;2023-02-24T01:49:20;33.30;;;13.30;;
76176;SDS011;64938;47.696;8.066;2023-02-24T01:54:55;40.30;;;15.80;;
76176;SDS011;64938;47.696;8.066;2023-02-24T01:57:25;32.20;;;14.73;;
76176;SDS011;64938;47.696;8.066;2023-02-24T01:59:54;31.97;;;14.83;;
76176;SDS011;64938;47.696;8.066;2023-02-24T02:02:26;38.53;;;16.33;;
76176;SDS011;64938;47.696;8.066;2023-02-24T02:04:54;43.27;;;17.27;;
76176;SDS011;64938;47.696;8.066;2023-02-24T02:07:22;46.47;;;16.23;;
76176;SDS011;64938;47.696;8.066;2023-02-24T02:09:50;39.70;;;16.70;;
76176;SDS011;64938;47.696;8.066;2023-02-24T02:12:19;35.30;;;14.90;;
76176;SDS011;64938;47.696;8.066;2023-02-24T02:14:45;36.53;;;14.70;;
76176;SDS011;64938;47.696;8.066;2023-02-24T02:39:24;31.33;;;14.00;;
76176;SDS011;64938;47.696;8.066;2023-02-24T02:44:31;22.97;;;12.33;;
76176;SDS011;64938;47.696;8.066;2023-02-24T02:47:09;26.63;;;12.70;;
76176;SDS011;64938;47.696;8.066;2023-02-24T02:49:39;26.70;;;11.83;;
76176;SDS011;64938;47.696;8.066;2023-02-24T02:52:09;25.60;;;12.07;;
76176;SDS011;64938;47.696;8.066;2023-02-24T02:57:16;32.93;;;14.03;;
76176;SDS011;64938;47.696;8.066;2023-02-24T02:59:48;29.67;;;13.37;;
76176;SDS011;64938;47.696;8.066;2023-02-24T03:02:18;28.53;;;13.37;;
76176;SDS011;64938;47.696;8.066;2023-02-24T03:04:48;32.30;;;13.87;;
76176;SDS011;64938;47.696;8.066;2023-02-24T03:07:16;29.97;;;14.20;;
76176;SDS011;64938;47.696;8.066;2023-02-24T03:09:45;29.33;;;14.17;;
76176;SDS011;64938;47.696;8.066;2023-02-24T03:12:15;36.60;;;14.80;;
76176;SDS011;64938;47.696;8.066;2023-02-24T03:14:43;28.93;;;13.57;;
76176;SDS011;64938;47.696;8.066;2023-02-24T03:17:17;30.10;;;13.70;;
76176;SDS011;64938;47.696;8.066;2023-02-24T03:19:48;29.77;;;13.90;;
76176;SDS011;64938;47.696;8.066;2023-02-24T03:22:32;33.43;;;14.23;;
76176;SDS011;64938;47.696;8.066;2023-02-24T03:25:02;31.57;;;13.70;;
76176;SDS011;64938;47.696;8.066;2023-02-24T03:27:31;44.00;;;15.13;;
76176;SDS011;64938;47.696;8.066;2023-02-24T03:30:17;38.70;;;15.10;;
76176;SDS011;64938;47.696;8.066;2023-02-24T03:32:50;35.03;;;13.30;;
76176;SDS011;64938;47.696;8.066;2023-02-24T03:35:21;35.50;;;14.37;;
76176;SDS011;64938;47.696;8.066;2023-02-24T03:37:50;32.90;;;15.20;;
76176;SDS011;64938;47.696;8.066;2023-02-24T03:40:19;37.37;;;14.83;;
76176;SDS011;64938;47.696;8.066;2023-02-24T03:42:46;34.70;;;15.77;;
76176;SDS011;64938;47.696;8.066;2023-02-24T03:45:15;39.73;;;15.60;;
76176;SDS011;64938;47.696;8.066;2023-02-24T03:47:41;34.73;;;14.67;;
76176;SDS011;64938;47.696;8.066;2023-02-24T03:50:14;37.77;;;14.43;;
76176;SDS011;64938;47.696;8.066;2023-02-24T03:53:02;35.63;;;14.70;;
76176;SDS011;64938;47.696;8.066;2023-02-24T04:01:23;40.10;;;15.13;;
76176;SDS011;64938;47.696;8.066;2023-02-24T04:12:06;31.17;;;14.47;;
76176;SDS011;64938;47.696;8.066;2023-02-24T04:19:28;29.83;;;13.50;;
76176;SDS011;64938;47.696;8.066;2023-02-24T04:21:56;28.50;;;12.33;;
76176;SDS011;64938;47.696;8.066;2023-02-24T04:24:25;29.27;;;13.53;;
76176;SDS011;64938;47.696;8.066;2023-02-24T04:26:55;27.60;;;12.80;;
76176;SDS011;64938;47.696;8.066;2023-02-24T04:29:23;31.83;;;14.80;;
76176;SDS011;64938;47.696;8.066;2023-02-24T04:31:52;36.03;;;15.23;;
76176;SDS011;64938;47.696;8.066;2023-02-24T04:34:21;45.83;;;17.53;;
76176;SDS011;64938;47.696;8.066;2023-02-24T04:36:47;32.43;;;15.00;;
76176;SDS011;64938;47.696;8.066;2023-02-24T04:39:15;34.73;;;15.03;;
76176;SDS011;64938;47.696;8.066;2023-02-24T04:41:44;34.20;;;13.17;;
76176;SDS011;64938;47.696;8.066;2023-02-24T04:44:14;46.50;;;14.90;;
76176;SDS011;64938;47.696;8.066;2023-02-24T04:46:42;33.87;;;14.37;;
76176;SDS011;64938;47.696;8.066;2023-02-24T04:49:09;41.40;;;14.90;;
76176;SDS011;64938;47.696;8.066;2023-02-24T04:51:35;33.10;;;13.70;;
76176;SDS011;64938;47.696;8.066;2023-02-24T04:54:01;33.47;;;13.77;;
76176;SDS011;64938;47.696;8.066;2023-02-24T04:56:28;28.83;;;13.00;;
76176;SDS011;64938;47.696;8.066;2023-02-24T04:58:53;29.07;;;11.57;;
76176;SDS011;64938;47.696;8.066;2023-02-24T05:01:19;22.27;;;11.17;;
76176;SDS011;64938;47.696;8.066;2023-02-24T05:03:45;26.10;;;10.73;;
76176;SDS011;64938;47.696;8.066;2023-02-24T05:06:13;27.07;;;11.77;;
76176;SDS011;64938;47.696;8.066;2023-02-24T05:08:40;22.20;;;9.20;;
76176;SDS011;64938;47.696;8.066;2023-02-24T05:11:06;26.83;;;10.57;;
76176;SDS011;64938;47.696;8.066;2023-02-24T05:13:35;22.00;;;10.13;;
76176;SDS011;64938;47.696;8.066;2023-02-24T05:16:03;29.20;;;10.73;;
76176;SDS011;64938;47.696;8.066;2023-02-24T05:18:32;26.50;;;9.60;;
76176;SDS011;64938;47.696;8.066;2023-02-24T05:21:10;26.73;;;10.97;;
76176;SDS011;64938;47.696;8.066;2023-02-24T05:23:57;24.10;;;9.70;;
76176;SDS011;64938;47.696;8.066;2023-02-24T05:26:23;39.33;;;9.90;;
76176;SDS011;64938;47.696;8.066;2023-02-24T05:28:50;25.60;;;10.37;;
76176;SDS011;64938;47.696;8.066;2023-02-24T05:31:19;19.83;;;8.60;;
76176;SDS011;64938;47.696;8.066;2023-02-24T05:33:48;21.50;;;9.47;;
76176;SDS011;64938;47.696;8.066;2023-02-24T05:36:18;22.27;;;8.50;;
76176;SDS011;64938;47.696;8.066;2023-02-24T05:38:52;28.23;;;9.20;;
76176;SDS011;64938;47.696;8.066;2023-02-24T05:41:22;20.83;;;8.83;;
76176;SDS011;64938;47.696;8.066;2023-02-24T05:43:56;19.00;;;8.40;;
76176;SDS011;64938;47.696;8.066;2023-02-24T05:46:25;20.50;;;8.40;;
76176;SDS011;64938;47.696;8.066;2023-02-24T05:48:53;21.67;;;8.00;;
76176;SDS011;64938;47.696;8.066;2023-02-24T05:51:21;22.40;;;9.50;;
76176;SDS011;64938;47.696;8.066;2023-02-24T05:53:49;14.77;;;7.80;;
76176;SDS011;64938;47.696;8.066;2023-02-24T05:56:21;17.60;;;7.80;;
76176;SDS011;64938;47.696;8.066;2023-02-24T05:58:48;16.20;;;7.90;;
76176;SDS011;64938;47.696;8.066;2023-02-24T06:01:28;20.70;;;8.20;;
76176;SDS011;64938;47.696;8.066;2023-02-24T06:03:55;22.80;;;8.73;;
76176;SDS011;64938;47.696;8.066;2023-02-24T06:06:31;18.73;;;8.60;;
76176;SDS011;64938;47.696;8.066;2023-02-24T06:09:02;23.67;;;9.10;;
76176;SDS011;64938;47.696;8.066;2023-02-24T06:11:37;25.93;;;9.10;;
76176;SDS011;64938;47.696;8.066;2023-02-24T06:14:04;26.70;;;8.63;;
76176;SDS011;64938;47.696;8.066;2023-02-24T06:16:32;28.57;;;9.10;;
76176;SDS011;64938;47.696;8.066;2023-02-24T06:18:58;17.10;;;8.30;;
76176;SDS011;64938;47.696;8.066;2023-02-24T06:21:24;23.77;;;8.60;;
76176;SDS011;64938;47.696;8.066;2023-02-24T06:23:55;17.83;;;8.03;;
76176;SDS011;64938;47.696;8.066;2023-02-24T06:26:21;15.17;;;7.90;;
76176;SDS011;64938;47.696;8.066;2023-02-24T06:28:51;16.67;;;8.23;;
76176;SDS011;64938;47.696;8.066;2023-02-24T06:31:18;24.30;;;9.47;;
76176;SDS011;64938;47.696;8.066;2023-02-24T06:33:45;25.83;;;9.33;;
76176;SDS011;64938;47.696;8.066;2023-02-24T06:36:11;23.60;;;8.67;;
76176;SDS011;64938;47.696;8.066;2023-02-24T06:38:38;30.50;;;10.40;;
76176;SDS011;64938;47.696;8.066;2023-02-24T06:41:04;32.97;;;11.50;;
76176;SDS011;64938;47.696;8.066;2023-02-24T06:43:36;37.00;;;11.67;;
76176;SDS011;64938;47.696;8.066;2023-02-24T06:46:03;28.17;;;11.50;;
76176;SDS011;64938;47.696;8.066;2023-02-24T06:48:30;28.10;;;11.20;;
76176;SDS011;64938;47.696;8.066;2023-02-24T06:51:02;23.50;;;12.10;;
76176;SDS011;64938;47.696;8.066;2023-02-24T06:53:30;28.90;;;13.10;;
76176;SDS011;64938;47.696;8.066;2023-02-24T06:56:02;34.30;;;13.30;;
76176;SDS011;64938;47.696;8.066;2023-02-24T06:58:31;31.57;;;12.80;;
76176;SDS011;64938;47.696;8.066;2023-02-24T07:00:57;34.23;;;13.23;;
76176;SDS011;64938;47.696;8.066;2023-02-24T07:03:23;30.07;;;13.07;;
76176;SDS011;64938;47.696;8.066;2023-02-24T07:06:03;24.47;;;11.47;;
76176;SDS011;64938;47.696;8.066;2023-02-24T07:08:49;23.00;;;11.43;;
76176;SDS011;64938;47.696;8.066;2023-02-24T07:11:16;26.73;;;10.83;;
76176;SDS011;64938;47.696;8.066;2023-02-24T07:13:43;22.50;;;12.10;;
76176;SDS011;64938;47.696;8.066;2023-02-24T07:16:12;31.40;;;12.70;;
76176;SDS011;64938;47.696;8.066;2023-02-24T07:18:40;21.90;;;10.67;;
76176;SDS011;64938;47.696;8.066;2023-02-24T07:21:08;25.07;;;11.23;;
76176;SDS011;64938;47.696;8.066;2023-02-24T07:23:36;28.07;;;12.03;;
76176;SDS011;64938;47.696;8.066;2023-02-24T07:26:05;24.03;;;11.77;;
76176;SDS011;64938;47.696;8.066;2023-02-24T07:28:34;28.23;;;11.50;;
76176;SDS011;64938;47.696;8.066;2023-02-24T07:31:04;24.80;;;12.40;;
76176;SDS011;64938;47.696;8.066;2023-02-24T07:33:33;24.60;;;11.50;;
76176;SDS011;64938;47.696;8.066;2023-02-24T07:36:03;17.63;;;10.43;;
76176;SDS011;64938;47.696;8.066;2023-02-24T07:38:41;22.90;;;10.50;;
76176;SDS011;64938;47.696;8.066;2023-02-24T07:41:07;25.00;;;9.93;;
76176;SDS011;64938;47.696;8.066;2023-02-24T07:43:35;18.57;;;10.20;;
76176;SDS011;64938;47.696;8.066;2023-02-24T07:46:10;18.10;;;9.30;;
76176;SDS011;64938;47.696;8.066;2023-02-24T07:48:38;24.10;;;9.90;;
76176;SDS011;64938;47.696;8.066;2023-02-24T07:51:07;20.00;;;10.30;;
76176;SDS011;64938;47.696;8.066;2023-02-24T07:53:33;20.23;;;11.30;;
76176;SDS011;64938;47.696;8.066;2023-02-24T07:55:59;24.77;;;13.13;;
76176;SDS011;64938;47.696;8.066;2023-02-24T07:58:31;29.20;;;13.30;;
76176;SDS011;64938;47.696;8.066;2023-02-24T08:01:00;20.80;;;11.83;;
76176;SDS011;64938;47.696;8.066;2023-02-24T08:03:34;26.37;;;12.73;;
76176;SDS011;64938;47.696;8.066;2023-02-24T08:06:05;23.20;;;13.77;;
76176;SDS011;64938;47.696;8.066;2023-02-24T08:08:41;24.13;;;13.17;;
76176;SDS011;64938;47.696;8.066;2023-02-24T08:11:24;24.30;;;13.30;;
76176;SDS011;64938;47.696;8.066;2023-02-24T08:13:50;20.23;;;12.17;;
76176;SDS011;64938;47.696;8.066;2023-02-24T08:16:17;15.20;;;10.60;;
76176;SDS011;64938;47.696;8.066;2023-02-24T08:18:42;20.23;;;11.93;;
76176;SDS011;64938;47.696;8.066;2023-02-24T08:21:15;18.20;;;11.60;;
76176;SDS011;64938;47.696;8.066;2023-02-24T08:23:45;24.30;;;11.63;;
76176;SDS011;64938;47.696;8.066;2023-02-24T08:26:11;18.53;;;11.70;;
76176;SDS011;64938;47.696;8.066;2023-02-24T08:28:40;17.53;;;12.10;;
76176;SDS011;64938;47.696;8.066;2023-02-24T08:31:06;18.10;;;11.70;;
76176;SDS011;64938;47.696;8.066;2023-02-24T08:33:32;18.03;;;10.70;;
76176;SDS011;64938;47.696;8.066;2023-02-24T08:36:01;15.70;;;10.57;;
76176;SDS011;64938;47.696;8.066;2023-02-24T08:38:28;14.27;;;10.50;;
76176;SDS011;64938;47.696;8.066;2023-02-24T08:41:05;16.90;;;10.97;;
76176;SDS011;64938;47.696;8.066;2023-02-24T08:43:37;13.93;;;10.23;;
76176;SDS011;64938;47.696;8.066;2023-02-24T08:48:39;17.40;;;8.93;;
76176;SDS011;64938;47.696;8.066;2023-02-24T08:53:40;15.00;;;9.80;;
76176;SDS011;64938;47.696;8.066;2023-02-24T08:56:08;15.00;;;9.10;;
76176;SDS011;64938;47.696;8.066;2023-02-24T08:58:37;15.53;;;8.70;;
76176;SDS011;64938;47.696;8.066;2023-02-24T09:01:08;11.47;;;7.87;;
76176;SDS011;64938;47.696;8.066;2023-02-24T09:03:45;11.70;;;7.00;;
76176;SDS011;64938;47.696;8.066;2023-02-24T09:06:12;18.17;;;9.40;;
76176;SDS011;64938;47.696;8.066;2023-02-24T09:08:41;17.50;;;8.23;;
76176;SDS011;64938;47.696;8.066;2023-02-24T09:11:12;12.03;;;7.77;;
76176;SDS011;64938;47.696;8.066;2023-02-24T09:13:40;12.50;;;8.17;;
76176;SDS011;64938;47.696;8.066;2023-02-24T09:16:19;9.43;;;6.80;;
76176;SDS011;64938;47.696;8.066;2023-02-24T09:18:48;15.27;;;7.27;;
76176;SDS011;64938;47.696;8.066;2023-02-24T09:21:34;13.40;;;7.50;;
76176;SDS011;64938;47.696;8.066;2023-02-24T09:24:21;11.53;;;7.60;;
76176;SDS011;64938;47.696;8.066;2023-02-24T09:26:54;16.33;;;7.93;;
76176;SDS011;64938;47.696;8.066;2023-02-24T09:29:24;11.87;;;7.30;;
76176;SDS011;64938;47.696;8.066;2023-02-24T09:31:58;12.97;;;7.70;;
76176;SDS011;64938;47.696;8.066;2023-02-24T09:34:30;14.37;;;7.83;;
76176;SDS011;64938;47.696;8.066;2023-02-24T09:36:57;10.37;;;7.33;;
76176;SDS011;64938;47.696;8.066;2023-02-24T09:39:43;10.40;;;6.90;;
76176;SDS011;64938;47.696;8.066;2023-02-24T09:42:30;12.83;;;7.40;;
76176;SDS011;64938;47.696;8.066;2023-02-24T09:45:19;12.37;;;6.93;;
76176;SDS011;64938;47.696;8.066;2023-02-24T09:47:58;10.40;;;6.50;;
76176;SDS011;64938;47.696;8.066;2023-02-24T09:50:34;16.50;;;9.00;;
76176;SDS011;64938;47.696;8.066;2023-02-24T09:53:11;15.13;;;8.30;;
76176;SDS011;64938;47.696;8.066;2023-02-24T10:01:32;15.53;;;6.50;;
76176;SDS011;64938;47.696;8.066;2023-02-24T10:06:39;11.30;;;6.03;;
76176;SDS011;64938;47.696;8.066;2023-02-24T10:09:13;10.77;;;5.87;;
76176;SDS011;64938;47.696;8.066;2023-02-24T10:11:53;12.93;;;6.33;;
76176;SDS011;64938;47.696;8.066;2023-02-24T10:17:21;10.43;;;6.57;;
76176;SDS011;64938;47.696;8.066;2023-02-24T10:19:50;10.87;;;7.27;;
76176;SDS011;64938;47.696;8.066;2023-02-24T10:22:27;12.90;;;6.67;;
76176;SDS011;64938;47.696;8.066;2023-02-24T10:25:02;15.57;;;5.83;;
76176;SDS011;64938;47.696;8.066;2023-02-24T10:27:39;11.30;;;5.43;;
76176;SDS011;64938;47.696;8.066;2023-02-24T10:30:23;14.47;;;5.23;;
76176;SDS011;64938;47.696;8.066;2023-02-24T10:33:10;9.90;;;4.20;;
76176;SDS011;64938;47.696;8.066;2023-02-24T10:35:49;11.50;;;4.30;;
76176;SDS011;64938;47.696;8.066;2023-02-24T10:38:15;9.83;;;3.87;;
76176;SDS011;64938;47.696;8.066;2023-02-24T10:40:43;16.90;;;4.20;;
76176;SDS011;64938;47.696;8.066;2023-02-24T10:43:19;8.90;;;4.07;;
76176;SDS011;64938;47.696;8.066;2023-02-24T10:45:54;12.17;;;4.87;;
76176;SDS011;64938;47.696;8.066;2023-02-24T10:48:31;13.43;;;4.37;;
76176;SDS011;64938;47.696;8.066;2023-02-24T10:51:13;14.80;;;4.83;;
76176;SDS011;64938;47.696;8.066;2023-02-24T10:54:01;13.43;;;4.70;;
76176;SDS011;64938;47.696;8.066;2023-02-24T10:56:49;15.10;;;5.07;;
76176;SDS011;64938;47.696;8.066;2023-02-24T10:59:56;9.43;;;4.57;;
76176;SDS011;64938;47.696;8.066;2023-02-24T11:02:45;16.00;;;4.30;;
76176;SDS011;64938;47.696;8.066;2023-02-24T11:05:23;12.90;;;4.40;;
76176;SDS011;64938;47.696;8.066;2023-02-24T11:08:05;9.93;;;4.30;;
76176;SDS011;64938;47.696;8.066;2023-02-24T11:10:59;12.40;;;4.10;;
76176;SDS011;64938;47.696;8.066;2023-02-24T11:13:31;10.40;;;4.33;;
76176;SDS011;64938;47.696;8.066;2023-02-24T11:16:17;12.57;;;4.60;;
76176;SDS011;64938;47.696;8.066;2023-02-24T11:19:04;18.67;;;4.77;;
76176;SDS011;64938;47.696;8.066;2023-02-24T11:21:31;19.17;;;5.20;;
76176;SDS011;64938;47.696;8.066;2023-02-24T11:23:58;13.37;;;4.33;;
76176;SDS011;64938;47.696;8.066;2023-02-24T11:26:33;12.00;;;4.63;;
76176;SDS011;64938;47.696;8.066;2023-02-24T11:29:07;13.87;;;4.50;;
76176;SDS011;64938;47.696;8.066;2023-02-24T11:34:39;15.87;;;4.60;;
76176;SDS011;64938;47.696;8.066;2023-02-24T11:47:35;15.53;;;4.53;;
76176;SDS011;64938;47.696;8.066;2023-02-24T11:52:51;10.73;;;4.37;;
76176;SDS011;64938;47.696;8.066;2023-02-24T11:55:24;12.30;;;4.97;;
76176;SDS011;64938;47.696;8.066;2023-02-24T11:57:53;14.90;;;4.43;;
76176;SDS011;64938;47.696;8.066;2023-02-24T12:00:23;13.43;;;5.10;;
76176;SDS011;64938;47.696;8.066;2023-02-24T12:05:45;12.00;;;4.90;;
76176;SDS011;64938;47.696;8.066;2023-02-24T12:08:24;13.90;;;3.93;;
76176;SDS011;64938;47.696;8.066;2023-02-24T12:10:57;12.27;;;4.67;;
76176;SDS011;64938;47.696;8.066;2023-02-24T12:13:31;17.03;;;4.50;;
76176;SDS011;64938;47.696;8.066;2023-02-24T12:16:16;11.57;;;4.77;;
76176;SDS011;64938;47.696;8.066;2023-02-24T12:18:46;14.33;;;5.77;;
76176;SDS011;64938;47.696;8.066;2023-02-24T12:21:25;15.53;;;4.43;;
76176;SDS011;64938;47.696;8.066;2023-02-24T12:23:54;13.03;;;4.73;;
76176;SDS011;64938;47.696;8.066;2023-02-24T12:26:24;14.00;;;4.30;;
76176;SDS011;64938;47.696;8.066;2023-02-24T12:35:15;15.73;;;5.53;;
76176;SDS011;64938;47.696;8.066;2023-02-24T12:38:00;15.37;;;4.77;;
76176;SDS011;64938;47.696;8.066;2023-02-24T12:40:53;13.10;;;4.60;;
76176;SDS011;64938;47.696;8.066;2023-02-24T12:43:40;9.60;;;4.53;;
76176;SDS011;64938;47.696;8.066;2023-02-24T12:49:11;13.93;;;4.43;;
76176;SDS011;64938;47.696;8.066;2023-02-24T12:51:50;11.00;;;4.63;;
76176;SDS011;64938;47.696;8.066;2023-02-24T12:59:45;17.93;;;5.77;;
76176;SDS011;64938;47.696;8.066;2023-02-24T13:02:16;12.13;;;5.20;;
76176;SDS011;64938;47.696;8.066;2023-02-24T13:10:04;11.63;;;4.73;;
76176;SDS011;64938;47.696;8.066;2023-02-24T13:13:01;13.67;;;5.67;;
76176;SDS011;64938;47.696;8.066;2023-02-24T13:15:29;13.40;;;4.80;;
76176;SDS011;64938;47.696;8.066;2023-02-24T13:17:56;12.30;;;4.80;;
76176;SDS011;64938;47.696;8.066;2023-02-24T13:20:25;10.80;;;4.40;;
76176;SDS011;64938;47.696;8.066;2023-02-24T13:22:53;13.33;;;5.53;;
76176;SDS011;64938;47.696;8.066;2023-02-24T13:25:20;12.90;;;5.10;;
76176;SDS011;64938;47.696;8.066;2023-02-24T13:28:17;14.13;;;5.07;;
76176;SDS011;64938;47.696;8.066;2023-02-24T13:30:59;13.50;;;5.57;;
76176;SDS011;64938;47.696;8.066;2023-02-24T13:33:30;15.57;;;5.10;;
76176;SDS011;64938;47.696;8.066;2023-02-24T13:38:42;13.90;;;4.90;;
76176;SDS011;64938;47.696;8.066;2023-02-24T13:43:52;14.63;;;5.60;;
76176;SDS011;64938;47.696;8.066;2023-02-24T13:46:18;13.60;;;4.90;;
76176;SDS011;64938;47.696;8.066;2023-02-24T13:51:44;14.80;;;5.10;;
76176;SDS011;64938;47.696;8.066;2023-02-24T14:02:57;12.50;;;4.67;;
76176;SDS011;64938;47.696;8.066;2023-02-24T14:05:28;8.90;;;4.43;;
76176;SDS011;64938;47.696;8.066;2023-02-24T14:08:02;14.23;;;5.47;;
76176;SDS011;64938;47.696;8.066;2023-02-24T14:10:30;10.27;;;4.70;;
76176;SDS011;64938;47.696;8.066;2023-02-24T14:15:31;13.13;;;5.20;;
76176;SDS011;64938;47.696;8.066;2023-02-24T14:17:59;8.63;;;4.50;;
76176;SDS011;64938;47.696;8.066;2023-02-24T14:20:29;12.13;;;4.93;;
76176;SDS011;64938;47.696;8.066;2023-02-24T14:23:00;13.40;;;4.50;;
76176;SDS011;64938;47.696;8.066;2023-02-24T14:25:27;17.60;;;5.00;;
76176;SDS011;64938;47.696;8.066;2023-02-24T14:27:55;14.13;;;5.30;;
76176;SDS011;64938;47.696;8.066;2023-02-24T14:30:23;10.23;;;4.30;;
76176;SDS011;64938;47.696;8.066;2023-02-24T14:32:50;14.07;;;4.20;;
76176;SDS011;64938;47.696;8.066;2023-02-24T14:35:25;9.77;;;4.50;;
76176;SDS011;64938;47.696;8.066;2023-02-24T14:37:58;15.87;;;5.47;;
76176;SDS011;64938;47.696;8.066;2023-02-24T14:40:25;17.10;;;5.23;;
76176;SDS011;64938;47.696;8.066;2023-02-24T14:42:52;11.87;;;4.43;;
76176;SDS011;64938;47.696;8.066;2023-02-24T14:45:21;20.57;;;5.33;;
76176;SDS011;64938;47.696;8.066;2023-02-24T14:47:50;8.17;;;4.90;;
76176;SDS011;64938;47.696;8.066;2023-02-24T14:50:18;15.17;;;5.07;;
76176;SDS011;64938;47.696;8.066;2023-02-24T14:55:17;14.97;;;5.43;;
76176;SDS011;64938;47.696;8.066;2023-02-24T15:00:40;11.63;;;5.50;;
76176;SDS011;64938;47.696;8.066;2023-02-24T15:05:41;16.97;;;5.30;;
76176;SDS011;64938;47.696;8.066;2023-02-24T15:08:13;14.73;;;6.97;;
76176;SDS011;64938;47.696;8.066;2023-02-24T15:10:46;14.73;;;5.37;;
76176;SDS011;64938;47.696;8.066;2023-02-24T15:13:15;14.87;;;4.47;;
76176;SDS011;64938;47.696;8.066;2023-02-24T15:15:44;13.83;;;5.33;;
76176;SDS011;64938;47.696;8.066;2023-02-24T15:18:13;16.97;;;5.27;;
76176;SDS011;64938;47.696;8.066;2023-02-24T15:20:44;12.93;;;5.10;;
76176;SDS011;64938;47.696;8.066;2023-02-24T15:26:06;11.20;;;5.50;;
76176;SDS011;64938;47.696;8.066;2023-02-24T15:28:36;10.93;;;6.27;;
76176;SDS011;64938;47.696;8.066;2023-02-24T15:31:16;18.60;;;6.77;;
76176;SDS011;64938;47.696;8.066;2023-02-24T15:33:44;14.97;;;6.23;;
76176;SDS011;64938;47.696;8.066;2023-02-24T15:36:17;15.60;;;6.90;;
76176;SDS011;64938;47.696;8.066;2023-02-24T15:38:43;13.00;;;6.33;;
76176;SDS011;64938;47.696;8.066;2023-02-24T15:41:10;13.20;;;7.03;;
76176;SDS011;64938;47.696;8.066;2023-02-24T15:46:13;13.33;;;7.30;;
76176;SDS011;64938;47.696;8.066;2023-02-24T15:48:43;12.70;;;7.23;;
76176;SDS011;64938;47.696;8.066;2023-02-24T15:51:16;16.13;;;8.53;;
76176;SDS011;64938;47.696;8.066;2023-02-24T15:53:54;14.23;;;7.70;;
76176;SDS011;64938;47.696;8.066;2023-02-24T15:56:20;16.53;;;8.17;;
76176;SDS011;64938;47.696;8.066;2023-02-24T15:58:45;14.73;;;7.30;;
76176;SDS011;64938;47.696;8.066;2023-02-24T16:01:11;16.70;;;10.17;;
76176;SDS011;64938;47.696;8.066;2023-02-24T16:03:37;13.63;;;7.90;;
76176;SDS011;64938;47.696;8.066;2023-02-24T16:06:04;12.63;;;8.20;;
76176;SDS011;64938;47.696;8.066;2023-02-24T16:08:30;15.53;;;8.63;;
76176;SDS011;64938;47.696;8.066;2023-02-24T16:10:56;11.70;;;6.67;;
76176;SDS011;64938;47.696;8.066;2023-02-24T16:13:23;10.90;;;6.27;;
76176;SDS011;64938;47.696;8.066;2023-02-24T16:15:49;13.10;;;8.23;;
76176;SDS011;64938;47.696;8.066;2023-02-24T16:18:17;10.80;;;6.20;;
76176;SDS011;64938;47.696;8.066;2023-02-24T16:20:45;18.03;;;9.33;;
76176;SDS011;64938;47.696;8.066;2023-02-24T16:23:20;24.07;;;12.50;;
76176;SDS011;64938;47.696;8.066;2023-02-24T16:25:48;22.27;;;9.60;;
76176;SDS011;64938;47.696;8.066;2023-02-24T16:28:16;17.83;;;11.33;;
76176;SDS011;64938;47.696;8.066;2023-02-24T16:30:43;19.87;;;7.53;;
76176;SDS011;64938;47.696;8.066;2023-02-24T16:33:11;17.57;;;8.80;;
76176;SDS011;64938;47.696;8.066;2023-02-24T16:35:37;18.77;;;9.37;;
76176;SDS011;64938;47.696;8.066;2023-02-24T16:38:06;14.13;;;8.97;;
76176;SDS011;64938;47.696;8.066;2023-02-24T16:40:33;13.23;;;7.60;;
76176;SDS011;64938;47.696;8.066;2023-02-24T16:43:02;10.17;;;7.20;;
76176;SDS011;64938;47.696;8.066;2023-02-24T16:45:29;14.23;;;7.07;;
76176;SDS011;64938;47.696;8.066;2023-02-24T16:47:57;17.87;;;8.57;;
76176;SDS011;64938;47.696;8.066;2023-02-24T16:50:28;12.17;;;7.67;;
76176;SDS011;64938;47.696;8.066;2023-02-24T16:52:57;15.77;;;8.10;;
76176;SDS011;64938;47.696;8.066;2023-02-24T16:55:29;16.17;;;8.27;;
76176;SDS011;64938;47.696;8.066;2023-02-24T16:57:55;13.90;;;8.90;;
76176;SDS011;64938;47.696;8.066;2023-02-24T17:00:21;18.90;;;9.27;;
76176;SDS011;64938;47.696;8.066;2023-02-24T17:02:48;19.97;;;9.90;;
76176;SDS011;64938;47.696;8.066;2023-02-24T17:05:15;20.73;;;10.40;;
76176;SDS011;64938;47.696;8.066;2023-02-24T17:07:44;20.70;;;9.80;;
76176;SDS011;64938;47.696;8.066;2023-02-24T17:10:11;19.00;;;9.23;;
76176;SDS011;64938;47.696;8.066;2023-02-24T17:12:36;20.90;;;8.87;;